sensor_id;sensor_type;location;lat;lon;timestamp;pressure;altitude;pressure_sealevel;temperature;humidity
788;BME280;16074;42.708;23.312;2023-02-01T00:08:20;138700.38;;;1.59;100.00
788;BME280;16074;42.708;23.312;2023-02-01T00:10:48;138680.06;;;1.51;100.00
788;BME280;16074;42.708;23.312;2023-02-01T00:13:16;138698.00;;;1.58;100.00
788;BME280;16074;42.708;23.312;2023-02-01T00:15:44;138662.19;;;1.43;100.00
788;BME280;16074;42.708;23.312;2023-02-01T00:18:12;138669.34;;;1.46;100.00
788;BME280;16074;42.708;23.312;2023-02-01T00:20:45;138670.50;;;1.47;100.00
788;BME280;16074;42.708;23.312;2023-02-01T00:23:13;138657.41;;;1.41;100.00
788;BME280;16074;42.708;23.312;2023-02-01T00:25:43;138632.34;;;1.31;100.00
788;BME280;16074;42.708;23.312;2023-02-01T00:28:11;138641.91;;;1.35;100.00
788;BME280;16074;42.708;23.312;2023-02-01T00:30:40;138674.13;;;1.48;100.00
788;BME280;16074;42.708;23.312;2023-02-01T00:33:09;138638.31;;;1.33;100.00
788;BME280;16074;42.708;23.312;2023-02-01T00:35:37;138651.47;;;1.39;100.00
788;BME280;16074;42.708;23.312;2023-02-01T00:38:05;138628.75;;;1.29;100.00
788;BME280;16074;42.708;23.312;2023-02-01T00:40:33;138616.81;;;1.24;100.00
788;BME280;16074;42.708;23.312;2023-02-01T00:43:03;138627.59;;;1.29;100.00
788;BME280;16074;42.708;23.312;2023-02-01T00:45:31;138595.34;;;1.15;100.00
788;BME280;16074;42.708;23.312;2023-02-01T00:47:59;138609.66;;;1.21;100.00
788;BME280;16074;42.708;23.312;2023-02-01T00:50:27;138584.63;;;1.11;100.00
788;BME280;16074;42.708;23.312;2023-02-01T00:52:56;138577.47;;;1.08;100.00
788;BME280;16074;42.708;23.312;2023-02-01T00:55:24;138572.69;;;1.06;100.00
788;BME280;16074;42.708;23.312;2023-02-01T00:57:52;138544.06;;;0.94;100.00
788;BME280;16074;42.708;23.312;2023-02-01T01:00:22;138546.44;;;0.95;100.00
788;BME280;16074;42.708;23.312;2023-02-01T01:02:50;138547.66;;;0.96;100.00
788;BME280;16074;42.708;23.312;2023-02-01T01:05:18;138548.81;;;0.96;100.00
788;BME280;16074;42.708;23.312;2023-02-01T01:07:47;138551.22;;;0.97;100.00
788;BME280;16074;42.708;23.312;2023-02-01T01:10:15;138561.97;;;1.02;100.00
788;BME280;16074;42.708;23.312;2023-02-01T01:12:44;138594.16;;;1.15;100.00
788;BME280;16074;42.708;23.312;2023-02-01T01:15:12;138590.56;;;1.13;99.47
788;BME280;16074;42.708;23.312;2023-02-01T01:17:42;138587.00;;;1.12;98.32
788;BME280;16074;42.708;23.312;2023-02-01T01:20:11;138591.78;;;1.14;97.95
788;BME280;16074;42.708;23.312;2023-02-01T01:22:40;138571.53;;;1.06;96.99
788;BME280;16074;42.708;23.312;2023-02-01T01:25:08;138570.31;;;1.05;97.01
788;BME280;16074;42.708;23.312;2023-02-01T01:27:36;138534.50;;;0.90;96.43
788;BME280;16074;42.708;23.312;2023-02-01T01:30:05;138524.97;;;0.86;96.05
788;BME280;16074;42.708;23.312;2023-02-01T01:32:34;138509.47;;;0.80;95.21
788;BME280;16074;42.708;23.312;2023-02-01T01:35:05;138511.88;;;0.81;94.84
788;BME280;16074;42.708;23.312;2023-02-01T01:37:33;138521.41;;;0.85;94.25
788;BME280;16074;42.708;23.312;2023-02-01T01:40:06;138515.47;;;0.82;93.92
788;BME280;16074;42.708;23.312;2023-02-01T01:42:37;138516.63;;;0.83;93.44
788;BME280;16074;42.708;23.312;2023-02-01T01:45:07;138515.47;;;0.82;93.90
788;BME280;16074;42.708;23.312;2023-02-01T01:47:47;138523.78;;;0.86;94.01
788;BME280;16074;42.708;23.312;2023-02-01T01:50:20;138519.03;;;0.84;93.23
788;BME280;16074;42.708;23.312;2023-02-01T01:52:52;138514.25;;;0.82;94.08
788;BME280;16074;42.708;23.312;2023-02-01T01:55:22;138496.38;;;0.74;92.49
788;BME280;16074;42.708;23.312;2023-02-01T01:57:56;138483.25;;;0.69;93.18
788;BME280;16074;42.708;23.312;2023-02-01T02:00:26;138463.00;;;0.60;92.98
788;BME280;16074;42.708;23.312;2023-02-01T02:02:58;138458.22;;;0.58;93.17
788;BME280;16074;42.708;23.312;2023-02-01T02:05:29;138449.88;;;0.55;93.63
788;BME280;16074;42.708;23.312;2023-02-01T02:07:59;138449.88;;;0.55;93.88
788;BME280;16074;42.708;23.312;2023-02-01T02:10:28;138439.13;;;0.50;94.30
788;BME280;16074;42.708;23.312;2023-02-01T02:13:11;138435.59;;;0.49;94.58
788;BME280;16074;42.708;23.312;2023-02-01T02:15:45;138427.22;;;0.45;94.63
788;BME280;16074;42.708;23.312;2023-02-01T02:18:18;138405.75;;;0.36;94.67
788;BME280;16074;42.708;23.312;2023-02-01T02:21:17;138403.34;;;0.35;94.42
788;BME280;16074;42.708;23.312;2023-02-01T02:27:10;138397.41;;;0.33;93.85
788;BME280;16074;42.708;23.312;2023-02-01T02:30:27;138409.34;;;0.38;93.65
788;BME280;16074;42.708;23.312;2023-02-01T02:36:16;138412.91;;;0.39;93.36
788;BME280;16074;42.708;23.312;2023-02-01T02:38:52;138421.28;;;0.43;93.76
788;BME280;16074;42.708;23.312;2023-02-01T02:41:30;138435.59;;;0.49;94.69
788;BME280;16074;42.708;23.312;2023-02-01T02:44:23;138447.50;;;0.54;95.30
788;BME280;16074;42.708;23.312;2023-02-01T02:47:18;138451.06;;;0.55;95.58
788;BME280;16074;42.708;23.312;2023-02-01T02:50:00;138461.78;;;0.60;95.50
788;BME280;16074;42.708;23.312;2023-02-01T02:52:54;138457.00;;;0.58;95.79
788;BME280;16074;42.708;23.312;2023-02-01T02:55:42;138470.16;;;0.63;95.81
788;BME280;16074;42.708;23.312;2023-02-01T02:58:12;138468.94;;;0.63;95.42
788;BME280;16074;42.708;23.312;2023-02-01T03:00:59;138472.53;;;0.64;94.68
788;BME280;16074;42.708;23.312;2023-02-01T03:03:46;138476.09;;;0.66;93.89
788;BME280;16074;42.708;23.312;2023-02-01T03:06:39;138484.44;;;0.69;93.06
788;BME280;16074;42.708;23.312;2023-02-01T03:09:13;138502.31;;;0.77;92.08
788;BME280;16074;42.708;23.312;2023-02-01T03:11:45;138508.31;;;0.79;92.12
788;BME280;16074;42.708;23.312;2023-02-01T03:14:35;138513.09;;;0.81;91.49
788;BME280;16074;42.708;23.312;2023-02-01T03:17:08;138515.47;;;0.82;91.08
788;BME280;16074;42.708;23.312;2023-02-01T03:19:43;138522.59;;;0.85;91.08
788;BME280;16074;42.708;23.312;2023-02-01T03:22:20;138505.94;;;0.78;91.11
788;BME280;16074;42.708;23.312;2023-02-01T03:24:54;138504.72;;;0.78;91.61
788;BME280;16074;42.708;23.312;2023-02-01T03:27:27;138507.09;;;0.79;91.98
788;BME280;16074;42.708;23.312;2023-02-01T03:30:01;138504.72;;;0.78;91.77
788;BME280;16074;42.708;23.312;2023-02-01T03:32:33;138509.47;;;0.80;91.77
788;BME280;16074;42.708;23.312;2023-02-01T03:35:26;138504.72;;;0.78;91.12
788;BME280;16074;42.708;23.312;2023-02-01T03:38:02;138503.53;;;0.77;91.06
788;BME280;16074;42.708;23.312;2023-02-01T03:40:35;138496.38;;;0.74;91.50
788;BME280;16074;42.708;23.312;2023-02-01T03:43:07;138498.78;;;0.75;91.28
788;BME280;16074;42.708;23.312;2023-02-01T03:45:42;138504.72;;;0.78;91.76
788;BME280;16074;42.708;23.312;2023-02-01T03:48:12;138483.25;;;0.69;91.37
788;BME280;16074;42.708;23.312;2023-02-01T03:50:47;138480.84;;;0.68;91.45
788;BME280;16074;42.708;23.312;2023-02-01T03:53:20;138470.16;;;0.63;91.39
788;BME280;16074;42.708;23.312;2023-02-01T03:55:50;138482.06;;;0.68;91.29
788;BME280;16074;42.708;23.312;2023-02-01T03:58:21;138463.00;;;0.60;91.38
788;BME280;16074;42.708;23.312;2023-02-01T04:00:52;138459.38;;;0.59;91.45
788;BME280;16074;42.708;23.312;2023-02-01T04:03:21;138460.59;;;0.59;91.44
788;BME280;16074;42.708;23.312;2023-02-01T04:05:50;138461.78;;;0.60;91.50
788;BME280;16074;42.708;23.312;2023-02-01T04:08:23;138468.94;;;0.63;91.47
788;BME280;16074;42.708;23.312;2023-02-01T04:10:52;138478.47;;;0.67;91.12
788;BME280;16074;42.708;23.312;2023-02-01T04:13:20;138486.84;;;0.70;91.07
788;BME280;16074;42.708;23.312;2023-02-01T04:15:48;138495.16;;;0.74;90.87
788;BME280;16074;42.708;23.312;2023-02-01T04:18:17;138505.94;;;0.78;90.76
788;BME280;16074;42.708;23.312;2023-02-01T04:20:45;138519.03;;;0.84;90.80
788;BME280;16074;42.708;23.312;2023-02-01T04:23:13;138538.13;;;0.92;90.48
788;BME280;16074;42.708;23.312;2023-02-01T04:25:44;138555.97;;;0.99;90.63
788;BME280;16074;42.708;23.312;2023-02-01T04:28:12;138567.91;;;1.04;90.27
788;BME280;16074;42.708;23.312;2023-02-01T04:30:41;138578.69;;;1.09;90.38
788;BME280;16074;42.708;23.312;2023-02-01T04:33:09;138582.25;;;1.10;89.81
788;BME280;16074;42.708;23.312;2023-02-01T04:35:41;138592.97;;;1.14;89.79
788;BME280;16074;42.708;23.312;2023-02-01T04:38:09;138585.84;;;1.12;89.91
788;BME280;16074;42.708;23.312;2023-02-01T04:40:37;138581.06;;;1.10;89.98
788;BME280;16074;42.708;23.312;2023-02-01T04:43:07;138592.97;;;1.14;89.91
788;BME280;16074;42.708;23.312;2023-02-01T04:45:35;138587.00;;;1.12;90.74
788;BME280;16074;42.708;23.312;2023-02-01T04:48:04;138588.22;;;1.13;90.90
788;BME280;16074;42.708;23.312;2023-02-01T04:50:32;138590.56;;;1.13;90.95
788;BME280;16074;42.708;23.312;2023-02-01T04:53:01;138583.47;;;1.11;91.61
788;BME280;16074;42.708;23.312;2023-02-01T04:55:29;138600.13;;;1.17;91.86
788;BME280;16074;42.708;23.312;2023-02-01T04:57:57;138607.28;;;1.20;91.68
788;BME280;16074;42.708;23.312;2023-02-01T05:00:27;138610.88;;;1.22;92.02
788;BME280;16074;42.708;23.312;2023-02-01T05:02:55;138619.22;;;1.25;92.31
788;BME280;16074;42.708;23.312;2023-02-01T05:05:23;138635.91;;;1.32;92.97
788;BME280;16074;42.708;23.312;2023-02-01T05:07:51;138619.22;;;1.25;93.73
788;BME280;16074;42.708;23.312;2023-02-01T05:10:20;138616.81;;;1.24;94.52
788;BME280;16074;42.708;23.312;2023-02-01T05:12:49;138629.97;;;1.30;94.99
788;BME280;16074;42.708;23.312;2023-02-01T05:15:36;138637.13;;;1.33;94.47
788;BME280;16074;42.708;23.312;2023-02-01T05:18:04;138631.16;;;1.30;94.21
788;BME280;16074;42.708;23.312;2023-02-01T05:20:32;138641.91;;;1.35;93.81
788;BME280;16074;42.708;23.312;2023-02-01T05:23:01;138632.34;;;1.31;94.09
788;BME280;16074;42.708;23.312;2023-02-01T05:25:29;138647.84;;;1.37;93.93
788;BME280;16074;42.708;23.312;2023-02-01T05:27:57;138649.06;;;1.38;93.96
788;BME280;16074;42.708;23.312;2023-02-01T05:30:25;138647.84;;;1.37;93.50
788;BME280;16074;42.708;23.312;2023-02-01T05:32:55;138655.00;;;1.40;93.01
788;BME280;16074;42.708;23.312;2023-02-01T05:35:23;138668.13;;;1.46;93.41
788;BME280;16074;42.708;23.312;2023-02-01T05:37:52;138676.50;;;1.49;92.94
788;BME280;16074;42.708;23.312;2023-02-01T05:40:20;138682.44;;;1.52;92.38
788;BME280;16074;42.708;23.312;2023-02-01T05:42:48;138674.13;;;1.48;92.19
788;BME280;16074;42.708;23.312;2023-02-01T05:45:17;138690.81;;;1.55;92.34
788;BME280;16074;42.708;23.312;2023-02-01T05:47:45;138700.38;;;1.59;91.71
788;BME280;16074;42.708;23.312;2023-02-01T05:50:16;138702.75;;;1.60;91.19
788;BME280;16074;42.708;23.312;2023-02-01T05:52:54;138702.75;;;1.60;91.42
788;BME280;16074;42.708;23.312;2023-02-01T05:55:22;138705.16;;;1.61;91.49
788;BME280;16074;42.708;23.312;2023-02-01T05:57:50;138708.72;;;1.63;91.13
788;BME280;16074;42.708;23.312;2023-02-01T06:00:19;138724.25;;;1.69;91.12
788;BME280;16074;42.708;23.312;2023-02-01T06:02:48;138733.75;;;1.73;90.79
788;BME280;16074;42.708;23.312;2023-02-01T06:05:18;138744.53;;;1.78;90.38
788;BME280;16074;42.708;23.312;2023-02-01T06:07:46;138746.91;;;1.79;89.90
788;BME280;16074;42.708;23.312;2023-02-01T06:10:15;138769.59;;;1.88;90.02
788;BME280;16074;42.708;23.312;2023-02-01T06:12:44;138775.59;;;1.91;89.22
788;BME280;16074;42.708;23.312;2023-02-01T06:15:13;138779.13;;;1.92;88.50
788;BME280;16074;42.708;23.312;2023-02-01T06:17:43;138794.63;;;1.99;88.64
788;BME280;16074;42.708;23.312;2023-02-01T06:20:13;138791.09;;;1.97;88.18
788;BME280;16074;42.708;23.312;2023-02-01T06:22:43;138793.47;;;1.98;88.31
788;BME280;16074;42.708;23.312;2023-02-01T06:25:11;138798.25;;;2.00;87.92
788;BME280;16074;42.708;23.312;2023-02-01T06:27:39;138811.38;;;2.06;88.03
788;BME280;16074;42.708;23.312;2023-02-01T06:30:08;138813.75;;;2.07;87.78
788;BME280;16074;42.708;23.312;2023-02-01T06:32:37;138831.69;;;2.14;87.44
788;BME280;16074;42.708;23.312;2023-02-01T06:35:07;138836.47;;;2.16;86.89
788;BME280;16074;42.708;23.312;2023-02-01T06:37:37;138849.59;;;2.22;86.95
788;BME280;16074;42.708;23.312;2023-02-01T06:40:08;138865.09;;;2.28;86.12
788;BME280;16074;42.708;23.312;2023-02-01T06:42:37;138861.53;;;2.27;85.53
788;BME280;16074;42.708;23.312;2023-02-01T06:45:06;138863.94;;;2.28;85.42
788;BME280;16074;42.708;23.312;2023-02-01T06:47:34;138891.38;;;2.39;85.32
788;BME280;16074;42.708;23.312;2023-02-01T06:50:03;138908.09;;;2.46;85.38
788;BME280;16074;42.708;23.312;2023-02-01T06:52:31;138906.94;;;2.45;84.60
788;BME280;16074;42.708;23.312;2023-02-01T06:55:00;138892.59;;;2.39;84.28
788;BME280;16074;42.708;23.312;2023-02-01T06:57:29;138904.53;;;2.44;84.72
788;BME280;16074;42.708;23.312;2023-02-01T07:00:00;138887.81;;;2.37;84.53
788;BME280;16074;42.708;23.312;2023-02-01T07:02:28;138908.09;;;2.46;85.12
788;BME280;16074;42.708;23.312;2023-02-01T07:04:56;138909.31;;;2.46;84.56
788;BME280;16074;42.708;23.312;2023-02-01T07:07:25;138909.31;;;2.46;84.33
788;BME280;16074;42.708;23.312;2023-02-01T07:09:53;138917.66;;;2.50;84.99
788;BME280;16074;42.708;23.312;2023-02-01T07:12:21;138897.38;;;2.41;83.88
788;BME280;16074;42.708;23.312;2023-02-01T07:14:51;138897.38;;;2.41;83.96
788;BME280;16074;42.708;23.312;2023-02-01T07:17:19;138910.50;;;2.47;83.75
788;BME280;16074;42.708;23.312;2023-02-01T07:19:47;138929.63;;;2.55;84.06
788;BME280;16074;42.708;23.312;2023-02-01T07:22:16;138912.88;;;2.48;83.12
788;BME280;16074;42.708;23.312;2023-02-01T07:24:44;138940.34;;;2.59;83.44
788;BME280;16074;42.708;23.312;2023-02-01T07:27:12;138934.41;;;2.57;83.24
788;BME280;16074;42.708;23.312;2023-02-01T07:29:41;138932.00;;;2.56;82.88
788;BME280;16074;42.708;23.312;2023-02-01T07:32:11;138949.91;;;2.63;82.61
788;BME280;16074;42.708;23.312;2023-02-01T07:34:39;138951.13;;;2.64;82.21
788;BME280;16074;42.708;23.312;2023-02-01T07:37:07;138942.75;;;2.60;82.05
788;BME280;16074;42.708;23.312;2023-02-01T07:39:35;138947.53;;;2.62;81.81
788;BME280;16074;42.708;23.312;2023-02-01T07:42:03;138963.09;;;2.69;82.11
788;BME280;16074;42.708;23.312;2023-02-01T07:44:32;138977.44;;;2.75;82.09
788;BME280;16074;42.708;23.312;2023-02-01T07:47:00;139001.28;;;2.85;81.83
788;BME280;16074;42.708;23.312;2023-02-01T07:49:30;139006.06;;;2.87;81.04
788;BME280;16074;42.708;23.312;2023-02-01T07:51:59;138992.94;;;2.81;80.26
788;BME280;16074;42.708;23.312;2023-02-01T07:54:27;139010.84;;;2.89;80.55
788;BME280;16074;42.708;23.312;2023-02-01T07:56:56;139016.84;;;2.91;80.50
788;BME280;16074;42.708;23.312;2023-02-01T07:59:24;139041.94;;;3.02;80.08
788;BME280;16074;42.708;23.312;2023-02-01T08:01:52;139061.06;;;3.10;79.60
788;BME280;16074;42.708;23.312;2023-02-01T08:04:20;139070.63;;;3.14;78.92
788;BME280;16074;42.708;23.312;2023-02-01T08:06:49;139089.75;;;3.22;78.89
788;BME280;16074;42.708;23.312;2023-02-01T08:09:18;139102.91;;;3.27;78.37
788;BME280;16074;42.708;23.312;2023-02-01T08:11:46;139106.50;;;3.29;78.41
788;BME280;16074;42.708;23.312;2023-02-01T08:14:14;139116.06;;;3.33;77.68
788;BME280;16074;42.708;23.312;2023-02-01T08:16:42;139114.84;;;3.32;77.64
788;BME280;16074;42.708;23.312;2023-02-01T08:19:11;139118.47;;;3.34;77.41
788;BME280;16074;42.708;23.312;2023-02-01T08:21:39;139139.94;;;3.43;77.16
788;BME280;16074;42.708;23.312;2023-02-01T08:24:09;139153.13;;;3.48;76.62
788;BME280;16074;42.708;23.312;2023-02-01T08:26:38;139166.25;;;3.53;76.83
788;BME280;16074;42.708;23.312;2023-02-01T08:29:08;139192.59;;;3.64;76.48
788;BME280;16074;42.708;23.312;2023-02-01T08:31:38;139221.31;;;3.76;76.07
788;BME280;16074;42.708;23.312;2023-02-01T08:34:09;139229.66;;;3.80;75.88
788;BME280;16074;42.708;23.312;2023-02-01T08:36:38;139229.66;;;3.80;73.96
788;BME280;16074;42.708;23.312;2023-02-01T08:39:10;139244.00;;;3.86;73.93
788;BME280;16074;42.708;23.312;2023-02-01T08:41:38;139259.59;;;3.92;73.65
788;BME280;16074;42.708;23.312;2023-02-01T08:44:08;139302.63;;;4.10;73.57
788;BME280;16074;42.708;23.312;2023-02-01T08:46:37;139318.22;;;4.17;73.02
788;BME280;16074;42.708;23.312;2023-02-01T08:49:05;139302.63;;;4.10;72.30
788;BME280;16074;42.708;23.312;2023-02-01T08:51:33;139323.00;;;4.19;71.34
788;BME280;16074;42.708;23.312;2023-02-01T08:54:01;139281.09;;;4.01;71.18
788;BME280;16074;42.708;23.312;2023-02-01T08:56:31;139273.91;;;3.98;71.54
788;BME280;16074;42.708;23.312;2023-02-01T08:58:59;139272.72;;;3.98;71.96
788;BME280;16074;42.708;23.312;2023-02-01T09:01:27;139255.97;;;3.91;71.07
788;BME280;16074;42.708;23.312;2023-02-01T09:03:56;139242.84;;;3.85;71.31
788;BME280;16074;42.708;23.312;2023-02-01T09:06:24;139255.97;;;3.91;71.84
788;BME280;16074;42.708;23.312;2023-02-01T09:08:52;139238.06;;;3.83;71.08
788;BME280;16074;42.708;23.312;2023-02-01T09:11:21;139260.75;;;3.93;71.08
788;BME280;16074;42.708;23.312;2023-02-01T09:13:50;139251.19;;;3.89;70.72
788;BME280;16074;42.708;23.312;2023-02-01T09:16:19;139264.38;;;3.94;71.19
788;BME280;16074;42.708;23.312;2023-02-01T09:18:47;139299.06;;;4.09;70.77
788;BME280;16074;42.708;23.312;2023-02-01T09:21:33;139309.81;;;4.13;70.35
788;BME280;16074;42.708;23.312;2023-02-01T09:24:02;139307.41;;;4.12;69.59
788;BME280;16074;42.708;23.312;2023-02-01T09:26:30;139320.59;;;4.18;69.44
788;BME280;16074;42.708;23.312;2023-02-01T09:29:00;139313.44;;;4.15;69.15
788;BME280;16074;42.708;23.312;2023-02-01T09:31:30;139327.78;;;4.21;69.13
788;BME280;16074;42.708;23.312;2023-02-01T09:33:58;139350.50;;;4.30;69.41
788;BME280;16074;42.708;23.312;2023-02-01T09:36:27;139361.25;;;4.35;68.96
788;BME280;16074;42.708;23.312;2023-02-01T09:38:58;139358.88;;;4.34;68.62
788;BME280;16074;42.708;23.312;2023-02-01T09:41:35;139342.09;;;4.27;68.25
788;BME280;16074;42.708;23.312;2023-02-01T09:44:18;139338.53;;;4.25;68.05
788;BME280;16074;42.708;23.312;2023-02-01T09:46:55;139333.75;;;4.23;67.82
788;BME280;16074;42.708;23.312;2023-02-01T09:49:28;139394.78;;;4.49;67.75
788;BME280;16074;42.708;23.312;2023-02-01T09:51:59;139429.50;;;4.63;67.17
788;BME280;16074;42.708;23.312;2023-02-01T09:54:38;139443.88;;;4.69;66.48
788;BME280;16074;42.708;23.312;2023-02-01T09:57:13;139446.25;;;4.70;66.02
788;BME280;16074;42.708;23.312;2023-02-01T09:59:48;139472.59;;;4.81;65.43
788;BME280;16074;42.708;23.312;2023-02-01T10:02:22;139589.97;;;5.30;65.49
788;BME280;16074;42.708;23.312;2023-02-01T10:04:54;139695.41;;;5.74;62.87
788;BME280;16074;42.708;23.312;2023-02-01T10:07:32;139785.34;;;6.11;61.77
788;BME280;16074;42.708;23.312;2023-02-01T10:10:06;139863.31;;;6.43;58.91
788;BME280;16074;42.708;23.312;2023-02-01T10:15:47;140031.28;;;7.13;57.25
788;BME280;16074;42.708;23.312;2023-02-01T10:18:43;140087.69;;;7.36;55.99
788;BME280;16074;42.708;23.312;2023-02-01T10:21:21;140085.28;;;7.35;55.51
788;BME280;16074;42.708;23.312;2023-02-01T10:24:09;140074.50;;;7.31;54.82
788;BME280;16074;42.708;23.312;2023-02-01T10:26:46;140182.53;;;7.76;56.03
788;BME280;16074;42.708;23.312;2023-02-01T10:29:20;140212.53;;;7.88;54.02
788;BME280;16074;42.708;23.312;2023-02-01T10:31:52;140261.78;;;8.09;52.54
788;BME280;16074;42.708;23.312;2023-02-01T10:34:22;140314.72;;;8.30;52.04
788;BME280;16074;42.708;23.312;2023-02-01T10:36:55;140425.25;;;8.76;51.62
788;BME280;16074;42.708;23.312;2023-02-01T10:39:25;140491.38;;;9.04;50.07
788;BME280;16074;42.708;23.312;2023-02-01T10:41:55;140540.66;;;9.24;48.84
788;BME280;16074;42.708;23.312;2023-02-01T10:44:26;140526.25;;;9.18;48.84
788;BME280;16074;42.708;23.312;2023-02-01T10:46:56;140545.47;;;9.26;48.52
788;BME280;16074;42.708;23.312;2023-02-01T10:49:28;140462.50;;;8.92;49.44
788;BME280;16074;42.708;23.312;2023-02-01T10:52:05;140327.91;;;8.36;49.95
788;BME280;16074;42.708;23.312;2023-02-01T10:54:36;140344.72;;;8.43;50.04
788;BME280;16074;42.708;23.312;2023-02-01T10:57:08;140451.72;;;8.87;49.21
788;BME280;16074;42.708;23.312;2023-02-01T10:59:37;140394.00;;;8.63;48.50
788;BME280;16074;42.708;23.312;2023-02-01T11:02:20;140367.56;;;8.52;49.27
788;BME280;16074;42.708;23.312;2023-02-01T11:04:50;140243.78;;;8.01;49.22
788;BME280;16074;42.708;23.312;2023-02-01T11:07:26;140297.88;;;8.24;49.28
788;BME280;16074;42.708;23.312;2023-02-01T11:09:55;140407.25;;;8.69;49.51
788;BME280;16074;42.708;23.312;2023-02-01T11:12:29;140517.84;;;9.15;48.20
788;BME280;16074;42.708;23.312;2023-02-01T11:15:13;140363.97;;;8.51;47.92
788;BME280;16074;42.708;23.312;2023-02-01T11:17:44;140484.16;;;9.01;48.22
788;BME280;16074;42.708;23.312;2023-02-01T11:20:16;140574.34;;;9.38;47.84
788;BME280;16074;42.708;23.312;2023-02-01T11:22:48;140682.63;;;9.83;46.62
788;BME280;16074;42.708;23.312;2023-02-01T11:25:21;140674.22;;;9.79;46.60
788;BME280;16074;42.708;23.312;2023-02-01T11:27:50;140715.09;;;9.96;45.04
788;BME280;16074;42.708;23.312;2023-02-01T11:30:30;140776.53;;;10.22;45.04
788;BME280;16074;42.708;23.312;2023-02-01T11:33:01;140652.56;;;9.70;46.13
788;BME280;16074;42.708;23.312;2023-02-01T11:35:34;140651.31;;;9.70;46.01
788;BME280;16074;42.708;23.312;2023-02-01T11:38:11;140616.44;;;9.55;46.60
788;BME280;16074;42.708;23.312;2023-02-01T11:40:41;140745.25;;;10.09;46.01
788;BME280;16074;42.708;23.312;2023-02-01T11:43:15;140754.88;;;10.13;44.90
788;BME280;16074;42.708;23.312;2023-02-01T11:45:54;140526.25;;;9.18;46.30
788;BME280;16074;42.708;23.312;2023-02-01T11:48:26;140636.88;;;9.64;46.59
788;BME280;16074;42.708;23.312;2023-02-01T11:51:08;140632.13;;;9.62;46.66
788;BME280;16074;42.708;23.312;2023-02-01T11:53:55;140735.63;;;10.05;45.12
788;BME280;16074;42.708;23.312;2023-02-01T11:56:34;140833.13;;;10.45;45.12
788;BME280;16074;42.708;23.312;2023-02-01T11:59:23;140899.38;;;10.72;44.51
788;BME280;16074;42.708;23.312;2023-02-01T12:02:22;140860.81;;;10.57;43.74
788;BME280;16074;42.708;23.312;2023-02-01T12:05:13;140687.44;;;9.85;44.98
788;BME280;16074;42.708;23.312;2023-02-01T12:07:53;140705.47;;;9.92;44.94
788;BME280;16074;42.708;23.312;2023-02-01T12:10:31;140615.25;;;9.55;46.02
788;BME280;16074;42.708;23.312;2023-02-01T12:13:12;140674.22;;;9.79;45.70
788;BME280;16074;42.708;23.312;2023-02-01T12:15:53;140698.28;;;9.89;45.25
788;BME280;16074;42.708;23.312;2023-02-01T12:18:45;140750.06;;;10.11;46.03
788;BME280;16074;42.708;23.312;2023-02-01T12:21:31;140792.19;;;10.28;46.16
788;BME280;16074;42.708;23.312;2023-02-01T12:24:29;140863.22;;;10.58;44.98
788;BME280;16074;42.708;23.312;2023-02-01T12:27:14;140841.53;;;10.49;44.48
788;BME280;16074;42.708;23.312;2023-02-01T12:29:55;140876.44;;;10.63;44.08
788;BME280;16074;42.708;23.312;2023-02-01T12:32:41;140923.41;;;10.82;43.79
788;BME280;16074;42.708;23.312;2023-02-01T12:38:16;140807.81;;;10.35;43.99
788;BME280;16074;42.708;23.312;2023-02-01T12:41:00;140776.53;;;10.22;43.97
788;BME280;16074;42.708;23.312;2023-02-01T12:43:38;140669.41;;;9.77;44.12
788;BME280;16074;42.708;23.312;2023-02-01T12:46:12;140793.38;;;10.29;43.91
788;BME280;16074;42.708;23.312;2023-02-01T12:48:56;140851.19;;;10.53;43.40
788;BME280;16074;42.708;23.312;2023-02-01T12:51:28;140881.28;;;10.65;43.53
788;BME280;16074;42.708;23.312;2023-02-01T12:54:03;140911.38;;;10.77;43.37
788;BME280;16074;42.708;23.312;2023-02-01T12:56:41;140845.13;;;10.50;43.11
788;BME280;16074;42.708;23.312;2023-02-01T12:59:18;140860.81;;;10.57;43.37
788;BME280;16074;42.708;23.312;2023-02-01T13:01:53;140878.88;;;10.64;43.67
788;BME280;16074;42.708;23.312;2023-02-01T13:04:30;140894.53;;;10.70;42.17
788;BME280;16074;42.708;23.312;2023-02-01T13:07:06;140835.56;;;10.46;42.44
788;BME280;16074;42.708;23.312;2023-02-01T13:09:42;140811.47;;;10.36;43.16
788;BME280;16074;42.708;23.312;2023-02-01T13:12:16;140742.84;;;10.08;43.79
788;BME280;16074;42.708;23.312;2023-02-01T13:14:49;140813.88;;;10.37;43.92
788;BME280;16074;42.708;23.312;2023-02-01T13:17:22;140899.38;;;10.72;43.84
788;BME280;16074;42.708;23.312;2023-02-01T13:19:53;140970.44;;;11.02;42.24
788;BME280;16074;42.708;23.312;2023-02-01T13:22:28;140925.81;;;10.83;41.54
788;BME280;16074;42.708;23.312;2023-02-01T13:25:00;140943.91;;;10.91;41.78
788;BME280;16074;42.708;23.312;2023-02-01T13:27:31;140927.06;;;10.84;42.25
788;BME280;16074;42.708;23.312;2023-02-01T13:30:03;140987.25;;;11.09;42.53
788;BME280;16074;42.708;23.312;2023-02-01T13:32:57;140978.84;;;11.05;42.45
788;BME280;16074;42.708;23.312;2023-02-01T13:39:12;140784.97;;;10.25;43.97
788;BME280;16074;42.708;23.312;2023-02-01T13:41:54;140699.47;;;9.90;44.31
788;BME280;16074;42.708;23.312;2023-02-01T13:44:27;140752.47;;;10.12;43.83
788;BME280;16074;42.708;23.312;2023-02-01T13:47:01;140794.59;;;10.29;43.64
788;BME280;16074;42.708;23.312;2023-02-01T13:49:33;140795.78;;;10.30;43.21
788;BME280;16074;42.708;23.312;2023-02-01T13:52:05;140875.28;;;10.63;42.90
788;BME280;16074;42.708;23.312;2023-02-01T13:54:36;140847.53;;;10.51;43.18
788;BME280;16074;42.708;23.312;2023-02-01T13:57:32;140953.56;;;10.95;43.16
788;BME280;16074;42.708;23.312;2023-02-01T14:00:07;141053.50;;;11.36;42.30